createdAt,value
2023-09-27T00:04:30.712Z,99324.66
2023-09-27T00:09:36.328Z,99320.69
2023-09-27T00:14:44.119Z,99312.81
2023-09-27T00:19:49.676Z,99309.81
2023-09-27T00:24:55.266Z,99313.59
2023-09-27T00:30:03.356Z,99314.72
2023-09-27T00:35:16.238Z,99318.16
2023-09-27T00:40:24.049Z,99316.91
2023-09-27T00:45:32.031Z,99314.69
2023-09-27T00:50:37.636Z,99302.72
2023-09-27T00:55:42.880Z,99306.50
2023-09-27T01:00:53.734Z,99299.25
2023-09-27T01:05:59.223Z,99301.16
2023-09-27T01:11:05.762Z,99301.47
2023-09-27T01:16:13.709Z,99304.75
2023-09-27T01:21:20.812Z,99289.94
2023-09-27T01:26:31.100Z,99290.59
2023-09-27T01:31:36.841Z,99291.88
2023-09-27T01:36:42.210Z,99286.59
2023-09-27T01:41:50.346Z,99280.78
2023-09-27T01:46:56.137Z,99281.72
2023-09-27T01:52:01.781Z,99282.97
2023-09-27T01:57:10.050Z,99281.75
2023-09-27T02:02:15.396Z,99285.34
2023-09-27T02:07:20.695Z,99295.44
2023-09-27T02:12:28.660Z,99285.88
2023-09-27T02:17:34.168Z,99293.56
2023-09-27T02:22:39.794Z,99294.81
2023-09-27T02:27:48.153Z,99294.84
2023-09-27T02:32:54.239Z,99288.06
2023-09-27T02:37:59.536Z,99292.28
2023-09-27T02:43:07.586Z,99282.53
2023-09-27T02:48:12.882Z,99282.69
2023-09-27T02:53:18.243Z,99286.94
2023-09-27T02:58:34.648Z,99285.53
2023-09-27T03:03:39.900Z,99293.09
2023-09-27T03:08:45.738Z,99293.91
2023-09-27T03:13:53.593Z,99281.59
2023-09-27T03:18:59.940Z,99265.50
2023-09-27T03:24:06.955Z,99283.19
2023-09-27T03:29:19.817Z,99288.22
2023-09-27T03:34:32.953Z,99292.47
2023-09-27T03:39:38.787Z,99296.72
2023-09-27T03:44:48.794Z,99304.59
2023-09-27T03:49:56.238Z,99313.28
2023-09-27T03:55:02.841Z,99317.56
2023-09-27T04:00:18.482Z,99321.66
2023-09-27T04:05:28.669Z,99323.81
2023-09-27T04:10:35.428Z,99317.16
2023-09-27T04:15:43.391Z,99327.28
2023-09-27T04:20:48.831Z,99321.59
2023-09-27T04:25:54.012Z,99317.03
2023-09-27T04:31:02.492Z,99309.28
2023-09-27T04:36:12.490Z,99315.28
2023-09-27T04:41:19.422Z,99324.94
2023-09-27T04:46:31.077Z,99324.16
2023-09-27T04:51:37.277Z,99323.81
2023-09-27T04:56:42.526Z,99335.03
2023-09-27T05:01:50.342Z,99335.84
2023-09-27T05:06:55.878Z,99344.19
2023-09-27T05:12:01.728Z,99340.34
2023-09-27T05:17:11.037Z,99343.72
2023-09-27T05:22:20.595Z,99351.91
2023-09-27T05:27:25.833Z,99350.97
2023-09-27T05:32:36.745Z,99348.59
2023-09-27T05:37:43.053Z,99349.06
2023-09-27T05:42:48.508Z,99349.72
2023-09-27T05:47:57.854Z,99346.72
2023-09-27T05:53:06.569Z,99352.28
2023-09-27T05:58:11.971Z,99359.09
2023-09-27T06:03:19.803Z,99376.09
2023-09-27T06:08:30.345Z,99377.94
2023-09-27T06:13:38.833Z,99369.25
2023-09-27T06:18:49.309Z,99365.91
2023-09-27T06:23:54.476Z,99383.75
2023-09-27T06:28:59.672Z,99383.34
2023-09-27T06:34:10.300Z,99381.19
2023-09-27T06:39:20.982Z,99395.31
2023-09-27T06:44:26.703Z,99390.22
2023-09-27T06:49:37.478Z,99386.91
2023-09-27T06:54:46.822Z,99401.06
2023-09-27T06:59:53.415Z,99401.66
2023-09-27T07:05:10.746Z,99414.44
2023-09-27T07:10:18.276Z,99413.66
2023-09-27T07:15:25.194Z,99417.09
2023-09-27T07:20:34.660Z,99411.91
2023-09-27T07:25:39.984Z,99416.44
2023-09-27T07:30:46.604Z,99440.09
2023-09-27T07:35:54.421Z,99441.47
2023-09-27T07:41:02.966Z,99453.13
2023-09-27T07:46:09.633Z,99451.84
2023-09-27T07:51:20.256Z,99442.97
2023-09-27T07:56:27.748Z,99446.81
2023-09-27T08:01:34.766Z,99447.56
2023-09-27T08:06:46.869Z,99447.44
2023-09-27T08:11:52.287Z,99453.28
2023-09-27T08:16:57.617Z,99453.31
2023-09-27T08:22:07.459Z,99455.94
2023-09-27T08:27:13.784Z,99447.97
2023-09-27T08:32:19.138Z,99422.81
2023-09-27T08:37:27.013Z,99432.72
2023-09-27T08:42:36.034Z,99418.00
2023-09-27T08:47:47.990Z,99411.78
2023-09-27T08:52:57.489Z,99406.06
2023-09-27T08:58:03.486Z,99386.97
2023-09-27T09:03:12.441Z,99403.44
2023-09-27T09:08:42.299Z,99387.06
2023-09-27T09:14:06.159Z,99393.66
2023-09-27T09:24:36.560Z,99383.91
2023-09-27T09:29:53.263Z,99379.97
2023-09-27T09:34:59.650Z,99367.78
2023-09-27T09:40:14.584Z,99367.88
2023-09-27T09:45:21.275Z,99359.59
2023-09-27T09:50:28.378Z,99354.50
2023-09-27T09:56:01.137Z,99354.31
2023-09-27T10:01:06.740Z,99353.44
2023-09-27T10:06:12.856Z,99349.03
2023-09-27T10:11:24.770Z,99342.88
2023-09-27T10:16:33.409Z,99342.16
2023-09-27T10:21:50.934Z,99342.63
2023-09-27T10:27:03.789Z,99316.75
2023-09-27T10:32:25.342Z,99327.41
2023-09-27T10:38:08.501Z,99323.06
2023-09-27T10:43:48.853Z,99311.06
2023-09-27T10:48:57.356Z,99302.84
2023-09-27T10:54:03.539Z,99294.13
2023-09-27T10:59:12.661Z,99303.03
2023-09-27T11:04:21.392Z,99295.38
2023-09-27T11:09:28.623Z,99291.78
2023-09-27T11:14:50.245Z,99290.50
2023-09-27T11:19:56.786Z,99282.47
2023-09-27T11:25:06.796Z,99281.16
2023-09-27T11:30:28.706Z,99286.69
2023-09-27T11:35:34.115Z,99273.19
2023-09-27T11:40:40.151Z,99269.03
2023-09-27T11:45:49.627Z,99273.25
2023-09-27T11:50:55.490Z,99263.88
2023-09-27T11:56:05.097Z,99256.47
2023-09-27T12:01:16.870Z,99255.75
2023-09-27T12:06:23.464Z,99246.81
2023-09-27T12:11:29.612Z,99241.13
2023-09-27T12:16:39.828Z,99240.69
2023-09-27T12:21:45.517Z,99236.69
2023-09-27T12:26:53.115Z,99224.53
2023-09-27T12:32:03.224Z,99227.97
2023-09-27T12:37:28.486Z,99225.56
2023-09-27T12:42:35.074Z,99227.47
2023-09-27T12:47:43.619Z,99219.91
2023-09-27T12:52:51.028Z,99205.69
2023-09-27T12:57:57.433Z,99198.72
2023-09-27T13:03:05.918Z,99194.09
2023-09-27T13:08:12.532Z,99195.31
2023-09-27T13:13:18.593Z,99186.97
2023-09-27T13:18:27.101Z,99196.25
2023-09-27T13:23:32.895Z,99179.94
2023-09-27T13:28:40.110Z,99170.81
2023-09-27T13:33:58.968Z,99162.88
2023-09-27T13:39:15.312Z,99163.25
2023-09-27T13:44:24.504Z,99153.34
2023-09-27T13:49:32.420Z,99158.31
2023-09-27T13:54:37.474Z,99145.09
2023-09-27T13:59:43.708Z,99145.75
2023-09-27T14:04:57.023Z,99138.03
2023-09-27T14:10:05.584Z,99128.22
2023-09-27T14:15:13.910Z,99128.56
2023-09-27T14:20:26.788Z,99117.31
2023-09-27T14:25:32.521Z,99119.34
2023-09-27T14:30:38.571Z,99117.19
2023-09-27T14:40:55.212Z,99106.09
2023-09-27T14:46:02.375Z,99102.63
2023-09-27T14:51:16.535Z,99097.44
2023-09-27T14:56:22.793Z,99098.47
2023-09-27T15:01:28.026Z,99094.69
2023-09-27T15:06:35.917Z,99093.56
2023-09-27T15:11:40.948Z,99093.19
2023-09-27T15:16:47.135Z,99093.69
2023-09-27T15:21:56.204Z,99097.22
2023-09-27T15:27:01.827Z,99098.38
2023-09-27T15:32:07.216Z,99107.75
2023-09-27T15:37:15.208Z,99098.06
2023-09-27T15:42:25.287Z,99095.72
2023-09-27T15:47:31.075Z,99101.53
2023-09-27T15:52:41.831Z,99106.16
2023-09-27T15:57:47.145Z,99107.66
2023-09-27T16:02:52.751Z,99113.13
2023-09-27T16:08:01.533Z,99109.94
2023-09-27T16:13:07.480Z,99110.66
2023-09-27T16:18:16.066Z,99112.03
2023-09-27T16:23:24.352Z,99113.91
2023-09-27T16:28:31.339Z,99108.47
2023-09-27T16:33:37.571Z,99101.59
2023-09-27T16:38:45.565Z,99089.47
2023-09-27T16:43:51.449Z,99085.22
2023-09-27T16:48:56.667Z,99081.59
2023-09-27T16:54:07.679Z,99079.94
2023-09-27T16:59:12.950Z,99069.69
2023-09-27T17:04:18.002Z,99073.41
2023-09-27T17:09:25.832Z,99078.78
2023-09-27T17:14:31.050Z,99076.81
2023-09-27T17:19:37.347Z,99087.09
2023-09-27T17:24:45.050Z,99085.53
2023-09-27T17:29:50.317Z,99076.28
2023-09-27T17:34:55.546Z,99075.31
2023-09-27T17:40:08.757Z,99082.31
2023-09-27T17:45:16.786Z,99076.59
2023-09-27T17:50:21.954Z,99075.00
2023-09-27T17:55:30.034Z,99079.34
2023-09-27T18:00:35.172Z,99074.31
2023-09-27T18:05:41.603Z,99071.59
2023-09-27T18:10:51.348Z,99066.41
2023-09-27T18:15:56.563Z,99069.69
2023-09-27T18:21:12.937Z,99077.63
2023-09-27T18:26:23.919Z,99075.72
2023-09-27T18:31:33.981Z,99084.09
2023-09-27T18:36:39.520Z,99077.63
2023-09-27T18:41:47.737Z,99076.34
2023-09-27T18:46:54.902Z,99085.00
2023-09-27T18:52:02.127Z,99073.69
2023-09-27T18:57:09.969Z,99075.06
2023-09-27T19:02:19.204Z,99069.47
2023-09-27T19:07:27.114Z,99074.00
2023-09-27T19:12:35.436Z,99070.97
2023-09-27T19:17:41.126Z,99068.75
2023-09-27T19:22:46.537Z,99063.69
2023-09-27T19:27:54.724Z,99062.91
2023-09-27T19:33:00.592Z,99059.47
2023-09-27T19:38:05.950Z,99053.59
2023-09-27T19:43:15.921Z,99057.25
2023-09-27T19:48:23.529Z,99057.16
2023-09-27T19:53:28.768Z,99047.97
2023-09-27T19:58:37.045Z,99047.84
2023-09-27T20:03:42.317Z,99052.09
2023-09-27T20:08:49.707Z,99047.16
2023-09-27T20:13:58.081Z,99048.84
2023-09-27T20:19:05.464Z,99040.66
2023-09-27T20:24:12.212Z,99039.31
2023-09-27T20:29:20.018Z,99036.69
2023-09-27T20:34:25.348Z,99024.97
2023-09-27T20:39:33.841Z,99028.78
2023-09-27T20:44:41.848Z,99029.88
2023-09-27T20:49:47.107Z,99027.81
2023-09-27T20:54:52.448Z,99027.63
2023-09-27T21:00:00.588Z,99015.22
2023-09-27T21:05:06.086Z,99019.53
2023-09-27T21:10:13.438Z,99011.50
2023-09-27T21:15:23.610Z,99015.47
2023-09-27T21:20:28.766Z,99018.25
2023-09-27T21:25:33.910Z,99015.44
2023-09-27T21:30:41.705Z,99016.97
2023-09-27T21:35:46.741Z,99009.03
2023-09-27T21:40:53.111Z,99012.22
2023-09-27T21:46:01.268Z,99011.84
2023-09-27T21:51:06.527Z,99008.66
2023-09-27T21:56:16.204Z,99002.94
2023-09-27T22:01:23.941Z,99003.28
2023-09-27T22:06:30.669Z,98999.13
2023-09-27T22:11:40.309Z,98999.78
2023-09-27T22:16:50.412Z,98997.16
2023-09-27T22:21:59.471Z,98993.16
2023-09-27T22:27:09.119Z,98992.38
2023-09-27T22:32:16.886Z,98986.22
2023-09-27T22:37:25.705Z,98989.25
2023-09-27T22:42:33.154Z,98985.97
2023-09-27T22:47:40.839Z,98990.91
2023-09-27T22:52:49.507Z,98986.97
2023-09-27T22:57:55.667Z,98980.81
2023-09-27T23:03:03.569Z,98978.38
2023-09-27T23:08:10.996Z,98982.06
2023-09-27T23:13:31.113Z,98966.72
2023-09-27T23:18:39.153Z,98965.94
2023-09-27T23:23:57.506Z,98957.28
2023-09-27T23:29:29.218Z,98964.00
2023-09-27T23:34:38.679Z,98957.53
2023-09-27T23:39:48.642Z,98958.56
2023-09-27T23:44:55.203Z,98951.13
2023-09-27T23:50:05.212Z,98953.91
2023-09-27T23:55:12.635Z,98953.81
